createdAt,value
2019-02-10T00:01:16.080Z,71.90
2019-02-10T00:03:45.519Z,72.20
2019-02-10T00:06:14.946Z,72.40
2019-02-10T00:08:44.385Z,72.50
2019-02-10T00:11:13.799Z,72.40
2019-02-10T00:13:43.248Z,72.60
2019-02-10T00:16:15.979Z,72.40
2019-02-10T00:18:45.416Z,72.40
2019-02-10T00:21:14.842Z,72.60
2019-02-10T00:23:44.289Z,72.50
2019-02-10T00:26:13.708Z,72.30
2019-02-10T00:28:43.151Z,72.80
2019-02-10T00:31:12.591Z,73.00
2019-02-10T00:33:42.018Z,73.20
2019-02-10T00:36:11.500Z,73.40
2019-02-10T00:38:40.896Z,73.60
2019-02-10T00:41:10.320Z,73.70
2019-02-10T00:43:39.763Z,73.60
2019-02-10T00:46:09.194Z,73.60
2019-02-10T00:48:38.681Z,73.60
2019-02-10T00:51:08.105Z,73.60
2019-02-10T00:53:37.604Z,73.60
2019-02-10T00:56:07.041Z,73.80
2019-02-10T00:58:36.482Z,73.80
2019-02-10T01:01:05.912Z,74.10
2019-02-10T01:03:35.340Z,74.10
2019-02-10T01:06:04.783Z,74.10
2019-02-10T01:08:34.243Z,74.00
2019-02-10T01:11:03.654Z,74.10
2019-02-10T01:13:33.078Z,74.00
2019-02-10T01:16:02.518Z,73.90
2019-02-10T01:18:31.967Z,73.90
2019-02-10T01:21:01.465Z,73.90
2019-02-10T01:23:30.880Z,73.90
2019-02-10T01:26:00.319Z,74.20
2019-02-10T01:28:29.754Z,74.40
2019-02-10T01:30:59.195Z,74.80
2019-02-10T01:33:28.615Z,75.00
2019-02-10T01:35:58.052Z,75.30
2019-02-10T01:38:27.465Z,75.90
2019-02-10T01:40:56.904Z,76.10
2019-02-10T01:43:26.329Z,76.40
2019-02-10T01:45:55.775Z,76.30
2019-02-10T01:48:25.209Z,76.60
2019-02-10T01:50:54.649Z,76.90
2019-02-10T01:53:24.069Z,77.60
2019-02-10T01:55:53.514Z,76.80
2019-02-10T01:58:22.977Z,77.00
2019-02-10T02:00:52.580Z,77.00
2019-02-10T02:03:22.004Z,77.30
2019-02-10T02:05:51.446Z,77.30
2019-02-10T02:08:20.895Z,77.40
2019-02-10T02:10:50.329Z,77.40
2019-02-10T02:13:19.770Z,77.30
2019-02-10T02:15:49.206Z,78.20
2019-02-10T02:18:18.655Z,77.50
2019-02-10T02:20:48.094Z,77.60
2019-02-10T02:23:17.525Z,78.10
2019-02-10T02:25:46.961Z,78.10
2019-02-10T02:28:16.377Z,78.30
2019-02-10T02:30:45.860Z,78.30
2019-02-10T02:33:15.268Z,78.30
2019-02-10T02:35:44.700Z,78.40
2019-02-10T02:38:14.128Z,78.80
2019-02-10T02:40:43.559Z,78.90
2019-02-10T02:43:12.985Z,79.00
2019-02-10T02:45:42.412Z,79.10
2019-02-10T02:48:11.835Z,79.20
2019-02-10T02:50:41.286Z,79.50
2019-02-10T02:53:10.712Z,79.30
2019-02-10T02:55:40.174Z,79.20
2019-02-10T02:58:09.775Z,79.00
2019-02-10T03:00:39.286Z,79.30
2019-02-10T03:03:08.699Z,79.30
2019-02-10T03:05:38.136Z,79.40
2019-02-10T03:08:07.554Z,79.50
2019-02-10T03:10:36.997Z,79.00
2019-02-10T03:13:06.413Z,79.30
2019-02-10T03:15:35.858Z,79.20
2019-02-10T03:18:14.256Z,79.00
2019-02-10T03:20:43.941Z,78.80
2019-02-10T03:23:13.393Z,78.50
2019-02-10T03:25:42.843Z,78.70
2019-02-10T03:28:12.250Z,78.40
2019-02-10T03:30:41.695Z,78.40
2019-02-10T03:33:11.119Z,78.30
2019-02-10T03:35:40.561Z,78.30
2019-02-10T03:38:09.978Z,78.40
2019-02-10T03:40:39.428Z,78.20
2019-02-10T03:43:08.852Z,78.40
2019-02-10T03:45:38.290Z,78.40
2019-02-10T03:48:07.711Z,78.50
2019-02-10T03:50:37.160Z,78.30
2019-02-10T03:53:06.764Z,78.50
2019-02-10T03:55:36.199Z,78.40
2019-02-10T03:58:05.661Z,78.40
2019-02-10T04:00:35.086Z,78.60
2019-02-10T04:03:04.499Z,78.50
2019-02-10T04:05:33.931Z,78.20
2019-02-10T04:08:03.348Z,78.30
2019-02-10T04:10:32.778Z,78.30
2019-02-10T04:13:02.198Z,78.40
2019-02-10T04:15:31.958Z,78.70
2019-02-10T04:18:01.392Z,78.50
2019-02-10T04:20:30.818Z,78.30
2019-02-10T04:23:00.272Z,78.50
2019-02-10T04:25:29.693Z,78.20
2019-02-10T04:27:59.123Z,77.80
2019-02-10T04:30:28.545Z,77.80
2019-02-10T04:32:57.983Z,77.60
2019-02-10T04:35:27.401Z,78.00
2019-02-10T04:37:56.835Z,77.80
2019-02-10T04:40:26.254Z,77.90
2019-02-10T04:42:55.703Z,77.80
2019-02-10T04:45:25.123Z,77.60
2019-02-10T04:47:54.551Z,77.60
2019-02-10T04:50:23.974Z,77.60
2019-02-10T04:52:53.436Z,77.30
2019-02-10T04:55:22.881Z,77.00
2019-02-10T04:57:52.311Z,76.80
2019-02-10T05:00:21.736Z,76.90
2019-02-10T05:02:51.168Z,76.80
2019-02-10T05:05:20.594Z,76.90
2019-02-10T05:07:54.509Z,76.70
2019-02-10T05:10:22.714Z,76.50
2019-02-10T05:12:52.151Z,76.30
2019-02-10T05:15:21.569Z,76.10
2019-02-10T05:17:51.010Z,76.10
2019-02-10T05:20:20.434Z,75.90
2019-02-10T05:22:49.881Z,75.90
2019-02-10T05:25:19.298Z,75.60
2019-02-10T05:27:50.372Z,74.90
2019-02-10T05:30:19.796Z,74.80
2019-02-10T05:32:49.242Z,74.50
2019-02-10T05:35:18.677Z,74.60
2019-02-10T05:37:49.748Z,74.00
2019-02-10T05:40:19.188Z,74.00
2019-02-10T05:42:48.621Z,73.70
2019-02-10T05:45:18.041Z,73.30
2019-02-10T05:47:47.476Z,73.60
2019-02-10T05:50:16.908Z,73.50
2019-02-10T05:52:46.345Z,73.40
2019-02-10T05:55:15.776Z,73.20
2019-02-10T05:57:45.218Z,73.40
2019-02-10T06:00:14.813Z,73.40
2019-02-10T06:02:44.248Z,74.00
2019-02-10T06:05:17.889Z,74.00
2019-02-10T06:07:47.454Z,73.40
2019-02-10T06:10:16.877Z,72.60
2019-02-10T06:12:46.322Z,73.00
2019-02-10T06:15:15.751Z,73.50
2019-02-10T06:17:45.192Z,73.50
2019-02-10T06:20:14.616Z,73.60
2019-02-10T06:22:44.089Z,73.40
2019-02-10T06:25:13.507Z,74.30
2019-02-10T06:27:42.942Z,73.50
2019-02-10T06:30:12.365Z,73.20
2019-02-10T06:32:41.809Z,73.00
2019-02-10T06:35:11.481Z,72.70
2019-02-10T06:37:40.894Z,73.10
2019-02-10T06:40:10.767Z,73.00
2019-02-10T06:42:40.198Z,72.90
2019-02-10T06:45:11.463Z,72.80
2019-02-10T06:47:40.907Z,72.80
2019-02-10T06:50:10.557Z,72.70
2019-02-10T06:52:39.998Z,72.80
2019-02-10T06:55:10.468Z,73.10
2019-02-10T06:57:39.898Z,72.90
2019-02-10T07:00:12.996Z,73.50
2019-02-10T07:03:27.035Z,73.30
2019-02-10T07:05:56.452Z,72.90
2019-02-10T07:08:30.677Z,73.40
2019-02-10T07:10:57.043Z,73.40
2019-02-10T07:13:36.322Z,73.00
2019-02-10T07:16:28.702Z,72.90
2019-02-10T07:19:52.232Z,72.80
2019-02-10T07:22:42.898Z,73.00
2019-02-10T07:25:19.696Z,72.40
2019-02-10T07:28:06.938Z,72.40
2019-02-10T07:30:44.072Z,72.30
2019-02-10T07:33:42.185Z,72.10
2019-02-10T07:36:21.850Z,71.60
2019-02-10T07:39:10.564Z,71.90
2019-02-10T07:41:56.423Z,71.10
2019-02-10T07:44:39.034Z,71.30
2019-02-10T07:47:32.206Z,71.30
2019-02-10T07:50:22.874Z,70.70
2019-02-10T07:53:11.830Z,70.30
2019-02-10T07:55:51.500Z,70.30
2019-02-10T07:58:50.712Z,70.00
2019-02-10T08:01:42.462Z,69.50
2019-02-10T08:04:16.591Z,68.80
2019-02-10T08:07:02.215Z,68.90
2019-02-10T08:09:59.569Z,67.20
2019-02-10T08:12:50.862Z,66.50
2019-02-10T08:15:30.184Z,63.70
2019-02-10T08:18:47.595Z,62.30
2019-02-10T08:21:33.299Z,59.90
2019-02-10T08:24:10.391Z,60.30
2019-02-10T08:26:56.410Z,60.70
2019-02-10T08:29:39.011Z,61.70
2019-02-10T08:32:21.647Z,62.10
2019-02-10T08:35:13.262Z,62.10
2019-02-10T08:38:13.517Z,61.30
2019-02-10T08:41:13.090Z,60.50
2019-02-10T08:44:03.445Z,60.50
2019-02-10T08:47:06.024Z,59.70
2019-02-10T08:50:00.992Z,57.10
2019-02-10T08:52:51.548Z,55.10
2019-02-10T08:55:15.029Z,53.50
2019-02-10T08:57:44.515Z,52.70
2019-02-10T09:00:13.965Z,52.40
2019-02-10T09:02:43.427Z,52.20
2019-02-10T09:05:12.857Z,53.20
2019-02-10T09:07:42.359Z,53.00
2019-02-10T09:10:13.724Z,53.70
2019-02-10T09:12:43.191Z,55.40
2019-02-10T09:15:13.541Z,56.20
2019-02-10T09:17:43.023Z,56.20
2019-02-10T09:20:12.691Z,56.20
2019-02-10T09:22:42.160Z,56.40
2019-02-10T09:25:12.812Z,56.50
2019-02-10T09:27:42.271Z,57.00
2019-02-10T09:30:15.044Z,57.50
2019-02-10T09:32:44.505Z,57.10
2019-02-10T09:35:13.931Z,56.70
2019-02-10T09:37:43.389Z,56.40
2019-02-10T09:40:13.277Z,56.20
2019-02-10T09:42:42.748Z,56.00
2019-02-10T09:45:13.409Z,56.00
2019-02-10T09:47:42.862Z,55.30
2019-02-10T09:50:18.642Z,54.80
2019-02-10T09:52:48.117Z,54.20
2019-02-10T09:55:17.547Z,53.30
2019-02-10T09:57:47.014Z,52.70
2019-02-10T10:00:16.521Z,52.80
2019-02-10T10:02:45.989Z,53.50
2019-02-10T10:05:15.422Z,53.50
2019-02-10T10:07:44.905Z,53.30
2019-02-10T10:10:15.001Z,53.30
2019-02-10T10:12:44.477Z,52.20
2019-02-10T10:15:16.886Z,52.00
2019-02-10T10:17:46.489Z,51.20
2019-02-10T10:20:18.429Z,51.00
2019-02-10T10:22:47.908Z,50.60
2019-02-10T10:25:17.342Z,49.90
2019-02-10T10:27:46.805Z,50.10
2019-02-10T10:30:20.579Z,50.50
2019-02-10T10:32:50.065Z,51.70
2019-02-10T10:35:19.503Z,51.40
2019-02-10T10:37:49.042Z,51.30
2019-02-10T10:40:18.476Z,51.20
2019-02-10T10:42:47.947Z,51.30
2019-02-10T10:45:17.457Z,50.70
2019-02-10T10:47:46.947Z,50.20
2019-02-10T10:50:16.374Z,49.90
2019-02-10T10:52:45.845Z,48.60
2019-02-10T10:55:15.272Z,48.20
2019-02-10T10:57:44.746Z,46.80
2019-02-10T11:00:15.698Z,45.30
2019-02-10T11:02:45.167Z,45.60
2019-02-10T11:05:14.993Z,43.40
2019-02-10T11:07:44.448Z,42.90
2019-02-10T11:10:14.434Z,43.80
2019-02-10T11:12:43.855Z,42.90
2019-02-10T11:15:16.405Z,43.20
2019-02-10T11:17:45.876Z,43.70
2019-02-10T11:20:15.479Z,43.40
2019-02-10T11:22:44.910Z,43.70
2019-02-10T11:25:14.452Z,44.60
2019-02-10T11:27:43.879Z,43.30
2019-02-10T11:30:15.636Z,42.70
2019-02-10T11:32:45.062Z,41.40
2019-02-10T11:35:14.536Z,41.70
2019-02-10T11:37:43.971Z,41.30
2019-02-10T11:40:13.976Z,40.00
2019-02-10T11:42:42.622Z,37.50
2019-02-10T11:45:15.722Z,37.30
2019-02-10T11:47:44.367Z,36.50
2019-02-10T11:50:14.799Z,33.20
2019-02-10T11:52:44.229Z,32.70
2019-02-10T11:55:13.975Z,32.00
2019-02-10T11:57:43.406Z,32.30
2019-02-10T12:00:18.250Z,30.60
2019-02-10T12:02:47.686Z,29.90
2019-02-10T12:05:17.164Z,31.50
2019-02-10T12:07:46.601Z,33.60
2019-02-10T12:10:16.074Z,34.10
2019-02-10T12:12:45.500Z,34.50
2019-02-10T12:15:15.819Z,35.00
2019-02-10T12:17:45.258Z,36.10
2019-02-10T12:20:15.744Z,35.70
2019-02-10T12:22:50.204Z,36.10
2019-02-10T12:25:16.363Z,36.60
2019-02-10T12:27:45.797Z,37.40
2019-02-10T12:30:18.608Z,37.80
2019-02-10T12:32:48.043Z,38.00
2019-02-10T12:35:17.514Z,38.30
2019-02-10T12:37:46.964Z,39.00
2019-02-10T12:40:16.408Z,39.10
2019-02-10T12:42:45.874Z,39.00
2019-02-10T12:45:15.829Z,38.60
2019-02-10T12:47:45.229Z,39.60
2019-02-10T12:50:15.724Z,39.80
2019-02-10T12:52:45.163Z,40.00
2019-02-10T12:55:14.810Z,39.70
2019-02-10T12:57:44.252Z,40.50
2019-02-10T13:00:20.687Z,41.10
2019-02-10T13:02:50.112Z,42.30
2019-02-10T13:05:19.592Z,42.50
2019-02-10T13:07:49.043Z,40.80
2019-02-10T13:10:18.594Z,41.10
2019-02-10T13:12:48.033Z,39.70
2019-02-10T13:15:17.509Z,38.90
2019-02-10T13:17:46.968Z,38.80
2019-02-10T13:20:16.497Z,37.90
2019-02-10T13:22:45.935Z,37.00
2019-02-10T13:25:15.438Z,36.20
2019-02-10T13:27:44.851Z,36.80
2019-02-10T13:30:19.037Z,38.60
2019-02-10T13:32:48.479Z,39.50
2019-02-10T13:35:17.958Z,39.00
2019-02-10T13:37:47.387Z,39.50
2019-02-10T13:40:22.602Z,38.10
2019-02-10T13:42:52.037Z,38.10
2019-02-10T13:45:21.510Z,37.40
2019-02-10T13:47:51.602Z,37.00
2019-02-10T13:50:21.576Z,35.80
2019-02-10T13:52:51.009Z,37.30
2019-02-10T13:55:20.486Z,36.40
2019-02-10T13:57:49.911Z,36.80
2019-02-10T14:00:24.997Z,37.00
2019-02-10T14:02:54.454Z,37.00
2019-02-10T14:05:23.936Z,38.50
2019-02-10T14:07:53.364Z,40.00
2019-02-10T14:10:25.637Z,37.40
2019-02-10T14:12:55.637Z,37.50
2019-02-10T14:15:25.115Z,38.10
2019-02-10T14:17:54.548Z,38.30
2019-02-10T14:20:24.020Z,38.00
2019-02-10T14:22:53.452Z,37.80
2019-02-10T14:25:23.780Z,38.40
2019-02-10T14:27:53.207Z,38.90
2019-02-10T14:30:25.511Z,39.80
2019-02-10T14:32:54.957Z,39.90
2019-02-10T14:35:24.444Z,40.90
2019-02-10T14:37:53.871Z,41.60
2019-02-10T14:40:23.360Z,42.00
2019-02-10T14:42:52.785Z,42.60
2019-02-10T14:45:22.274Z,43.00
2019-02-10T14:47:51.697Z,42.90
2019-02-10T14:50:21.195Z,43.50
2019-02-10T14:52:50.702Z,44.50
2019-02-10T14:55:20.183Z,44.70
2019-02-10T14:57:50.097Z,44.80
2019-02-10T15:00:19.592Z,45.40
2019-02-10T15:02:49.023Z,45.10
2019-02-10T15:05:18.486Z,42.40
2019-02-10T15:07:47.931Z,41.20
2019-02-10T15:10:20.017Z,38.90
2019-02-10T15:12:49.467Z,39.70
2019-02-10T15:15:18.989Z,38.50
2019-02-10T15:17:48.424Z,38.80
2019-02-10T15:20:17.898Z,38.30
2019-02-10T15:22:47.358Z,38.70
2019-02-10T15:25:16.989Z,39.60
2019-02-10T15:27:47.711Z,40.10
2019-02-10T15:30:18.338Z,39.00
2019-02-10T15:32:47.758Z,38.70
2019-02-10T15:35:17.302Z,39.00
2019-02-10T15:37:46.739Z,39.10
2019-02-10T15:40:16.177Z,39.30
2019-02-10T15:42:45.649Z,40.00
2019-02-10T15:45:15.339Z,40.20
2019-02-10T15:47:44.821Z,40.60
2019-02-10T15:50:15.838Z,41.80
2019-02-10T15:52:45.260Z,42.30
2019-02-10T15:55:15.151Z,43.60
2019-02-10T15:57:44.616Z,44.20
2019-02-10T16:00:29.125Z,45.50
2019-02-10T16:02:58.630Z,46.40
2019-02-10T16:05:28.112Z,47.00
2019-02-10T16:07:57.536Z,47.80
2019-02-10T16:10:26.982Z,48.20
2019-02-10T16:12:56.466Z,48.90
2019-02-10T16:15:25.927Z,48.70
2019-02-10T16:17:55.415Z,48.40
2019-02-10T16:20:25.208Z,47.90
2019-02-10T16:22:54.710Z,47.90
2019-02-10T16:25:24.146Z,47.70
2019-02-10T16:27:53.624Z,47.70
2019-02-10T16:30:23.072Z,47.70
2019-02-10T16:32:52.546Z,47.20
2019-02-10T16:35:21.989Z,46.70
2019-02-10T16:37:51.462Z,46.40
2019-02-10T16:40:22.918Z,46.60
2019-02-10T16:42:52.385Z,47.20
2019-02-10T16:45:21.847Z,47.40
2019-02-10T16:47:51.322Z,47.10
2019-02-10T16:50:20.771Z,47.60
2019-02-10T16:52:50.316Z,47.80
2019-02-10T16:55:21.559Z,48.10
2019-02-10T16:57:51.040Z,48.60
2019-02-10T17:00:20.481Z,48.50
2019-02-10T17:02:49.956Z,48.70
2019-02-10T17:05:19.423Z,49.40
2019-02-10T17:07:48.899Z,50.00
2019-02-10T17:10:22.121Z,50.50
2019-02-10T17:12:51.592Z,50.90
2019-02-10T17:15:21.017Z,51.10
2019-02-10T17:17:50.488Z,51.60
2019-02-10T17:20:19.945Z,52.20
2019-02-10T17:22:49.427Z,52.50
2019-02-10T17:25:25.134Z,52.70
2019-02-10T17:27:54.624Z,52.90
2019-02-10T17:30:24.056Z,53.10
2019-02-10T17:32:53.534Z,53.90
2019-02-10T17:35:22.969Z,54.20
2019-02-10T17:37:52.453Z,54.90
2019-02-10T17:40:56.195Z,54.70
2019-02-10T17:43:28.138Z,54.80
2019-02-10T17:45:56.838Z,55.20
2019-02-10T17:48:27.845Z,55.60
2019-02-10T17:50:57.283Z,55.90
2019-02-10T17:53:26.758Z,56.40
2019-02-10T17:55:56.202Z,56.70
2019-02-10T17:58:25.677Z,57.10
2019-02-10T18:00:55.471Z,58.10
2019-02-10T18:03:25.029Z,61.30
2019-02-10T18:05:54.462Z,66.10
2019-02-10T18:08:25.574Z,69.40
2019-02-10T18:10:55.179Z,72.70
2019-02-10T18:13:24.669Z,75.60
2019-02-10T18:15:56.881Z,77.30
2019-02-10T18:18:30.936Z,81.80
2019-02-10T18:21:00.150Z,84.30
2019-02-10T18:23:31.274Z,83.70
2019-02-10T18:26:02.420Z,85.70
2019-02-10T18:28:39.538Z,87.20
2019-02-10T18:31:10.600Z,88.00
2019-02-10T18:33:41.704Z,89.10
2019-02-10T18:36:28.972Z,89.10
2019-02-10T18:39:13.020Z,88.40
2019-02-10T18:41:44.073Z,89.70
2019-02-10T18:44:16.112Z,90.20
2019-02-10T18:47:02.999Z,90.40
2019-02-10T18:49:42.753Z,90.80
2019-02-10T18:52:19.504Z,90.70
2019-02-10T18:54:52.333Z,91.10
2019-02-10T18:57:39.185Z,91.00
2019-02-10T19:00:13.833Z,90.80
2019-02-10T19:02:50.936Z,91.20
2019-02-10T19:05:22.000Z,91.00
2019-02-10T19:07:51.235Z,90.60
2019-02-10T19:10:24.986Z,90.30
2019-02-10T19:13:01.871Z,90.00
2019-02-10T19:15:35.688Z,90.40
2019-02-10T19:18:18.434Z,90.30
2019-02-10T19:20:56.588Z,90.20
2019-02-10T19:23:43.220Z,90.10
2019-02-10T19:26:29.995Z,90.10
2019-02-10T19:29:10.869Z,89.40
2019-02-10T19:31:53.533Z,89.90
2019-02-10T19:34:25.415Z,89.50
2019-02-10T19:37:01.945Z,88.70
2019-02-10T19:39:33.008Z,88.30
2019-02-10T19:42:09.919Z,87.60
2019-02-10T19:44:41.004Z,87.90
2019-02-10T19:47:12.116Z,86.70
2019-02-10T19:49:46.136Z,86.20
2019-02-10T19:52:29.014Z,86.60
2019-02-10T19:55:05.558Z,86.20
2019-02-10T19:57:36.654Z,85.40
2019-02-10T20:00:14.393Z,84.60
2019-02-10T20:02:45.500Z,84.10
2019-02-10T20:05:32.202Z,84.10
2019-02-10T20:08:19.265Z,83.60
2019-02-10T20:10:50.327Z,83.10
2019-02-10T20:13:36.231Z,83.00
2019-02-10T20:16:07.285Z,82.80
2019-02-10T20:18:38.419Z,82.60
2019-02-10T20:21:12.200Z,82.90
2019-02-10T20:23:59.227Z,82.60
2019-02-10T20:26:32.939Z,81.70
2019-02-10T20:29:12.587Z,81.60
2019-02-10T20:31:43.637Z,81.80
2019-02-10T20:34:17.426Z,81.80
2019-02-10T20:37:04.440Z,81.30
2019-02-10T20:39:33.681Z,81.10
2019-02-10T20:42:11.896Z,80.70
2019-02-10T20:44:37.552Z,80.00
2019-02-10T20:47:08.621Z,79.60
2019-02-10T20:49:42.431Z,78.70
2019-02-10T20:52:13.498Z,78.00
2019-02-10T20:54:47.393Z,77.10
2019-02-10T20:57:24.453Z,77.60
2019-02-10T21:00:01.637Z,77.70
2019-02-10T21:02:38.203Z,77.50
2019-02-10T21:05:15.259Z,77.30
2019-02-10T21:07:46.316Z,78.20
2019-02-10T21:10:24.318Z,78.70
2019-02-10T21:12:58.103Z,79.60
2019-02-10T21:15:35.939Z,80.80
2019-02-10T21:18:21.918Z,81.10
2019-02-10T21:20:55.659Z,81.50
2019-02-10T21:23:26.800Z,81.60
2019-02-10T21:26:03.795Z,82.20
2019-02-10T21:28:37.812Z,82.60
2019-02-10T21:31:26.968Z,83.00
2019-02-10T21:33:58.077Z,83.50
2019-02-10T21:36:29.147Z,83.60
2019-02-10T21:39:16.698Z,82.90
2019-02-10T21:41:51.028Z,82.50
2019-02-10T21:44:31.737Z,81.90
2019-02-10T21:47:02.802Z,81.80
2019-02-10T21:49:32.271Z,81.40
2019-02-10T21:52:01.971Z,81.30
2019-02-10T21:54:31.442Z,80.40
2019-02-10T21:57:00.884Z,80.10
2019-02-10T21:59:30.564Z,80.40
2019-02-10T22:01:59.984Z,79.40
2019-02-10T22:04:29.456Z,79.10
2019-02-10T22:06:58.880Z,79.00
2019-02-10T22:09:28.343Z,78.60
2019-02-10T22:11:57.763Z,78.60
2019-02-10T22:14:27.239Z,78.20
2019-02-10T22:16:56.666Z,77.80
2019-02-10T22:19:26.117Z,77.70
2019-02-10T22:21:55.547Z,77.60
2019-02-10T22:24:24.990Z,77.80
2019-02-10T22:26:54.419Z,77.70
2019-02-10T22:29:23.863Z,77.50
2019-02-10T22:31:53.284Z,77.50
2019-02-10T22:34:22.713Z,76.80
2019-02-10T22:36:52.156Z,77.10
2019-02-10T22:39:21.581Z,76.50
2019-02-10T22:41:50.999Z,76.00
2019-02-10T22:44:20.437Z,75.80
2019-02-10T22:46:49.871Z,75.30
2019-02-10T22:49:19.359Z,75.50
2019-02-10T22:51:48.779Z,75.10
2019-02-10T22:54:18.235Z,74.80
2019-02-10T22:56:47.643Z,74.70
2019-02-10T22:59:17.074Z,74.60
2019-02-10T23:01:46.621Z,74.80
2019-02-10T23:04:16.068Z,74.50
2019-02-10T23:06:45.489Z,74.00
2019-02-10T23:09:16.656Z,73.70
2019-02-10T23:11:46.106Z,74.10
2019-02-10T23:14:15.654Z,74.00
2019-02-10T23:16:45.066Z,74.20
2019-02-10T23:19:14.493Z,74.20
2019-02-10T23:21:43.917Z,74.40
2019-02-10T23:24:13.352Z,74.20
2019-02-10T23:26:43.054Z,74.40
2019-02-10T23:29:12.503Z,74.20
2019-02-10T23:31:42.004Z,74.30
2019-02-10T23:34:11.432Z,74.10
2019-02-10T23:36:40.858Z,73.90
2019-02-10T23:39:10.360Z,73.90
2019-02-10T23:41:39.790Z,74.00
2019-02-10T23:44:09.245Z,74.20
2019-02-10T23:46:38.668Z,74.20
2019-02-10T23:49:08.120Z,74.30
2019-02-10T23:51:37.555Z,74.50
2019-02-10T23:54:06.980Z,74.50
2019-02-10T23:56:36.416Z,74.60
2019-02-10T23:59:05.835Z,74.60
